Time;durP1;ratioP1;P1;durP2;ratioP2;P2;SDS_P1;SDS_P2;PMS_P1;PMS_P2;Temp;Humidity;BMP_temperature;BMP_pressure;BME280_temperature;BME280_humidity;BME280_pressure;Samples;Min_cycle;Max_cycle;Signal;HPM_P1;HPM_P2
2024/02/05 00:01:27;;;;;;;1999.90;999.90;;;;;;;10.96;100.00;101880.03;10178039;29;20126;-68
2024/02/05 00:06:30;;;;;;;1999.90;999.90;;;;;;;11.00;100.00;101876.38;10177168;29;20050;-68
2024/02/05 00:11:33;;;;;;;1999.90;999.90;;;;;;;10.93;100.00;101888.06;10192195;29;20108;-68
2024/02/05 00:16:35;;;;;;;1999.90;999.90;;;;;;;10.90;100.00;101889.00;10191326;29;20492;-68
2024/02/05 00:21:38;;;;;;;1999.90;999.90;;;;;;;10.86;100.00;101879.59;10177226;29;20056;-68
2024/02/05 00:26:40;;;;;;;1999.90;999.90;;;;;;;10.88;100.00;101890.84;10191641;29;20056;-68
2024/02/05 00:31:43;;;;;;;1999.90;999.90;;;;;;;10.85;100.00;101884.91;10176891;29;20052;-68
2024/02/05 00:36:45;;;;;;;1999.90;999.90;;;;;;;10.91;100.00;101889.84;10176037;29;20502;-68
2024/02/05 00:41:48;;;;;;;1999.90;999.90;;;;;;;10.72;100.00;101897.63;10176550;29;20056;-68
2024/02/05 00:46:50;;;;;;;1999.90;999.90;;;;;;;10.69;100.00;101887.28;10174643;29;20058;-68
2024/02/05 00:51:53;;;;;;;1999.90;999.90;;;;;;;10.60;100.00;101912.06;10174303;29;20533;-67
2024/02/05 00:56:55;;;;;;;1999.90;999.90;;;;;;;10.62;100.00;101877.97;10175005;29;20464;-68
2024/02/05 01:01:57;;;;;;;1999.90;999.90;;;;;;;10.55;100.00;101882.59;10175937;29;20131;-68
2024/02/05 01:07:00;;;;;;;1999.90;999.90;;;;;;;10.62;100.00;101884.03;10175227;29;20488;-68
2024/02/05 01:12:03;;;;;;;1999.90;999.90;;;;;;;10.53;100.00;101882.66;10175111;29;20388;-68
2024/02/05 01:17:06;;;;;;;1999.90;999.90;;;;;;;10.50;100.00;101890.63;10175552;29;20140;-68
2024/02/05 01:22:08;;;;;;;1999.90;999.90;;;;;;;10.41;100.00;101878.75;10175475;29;20079;-68
2024/02/05 01:27:10;;;;;;;1999.90;999.90;;;;;;;10.44;100.00;101880.41;10189959;29;20044;-68
2024/02/05 01:32:13;;;;;;;1999.90;999.90;;;;;;;10.39;100.00;101871.88;10174706;29;20060;-68
2024/02/05 01:37:15;;;;;;;1999.90;999.90;;;;;;;10.36;100.00;101874.63;10174556;29;20399;-68
2024/02/05 01:42:18;;;;;;;1999.90;999.90;;;;;;;10.32;100.00;101866.03;10175183;29;20055;-68
2024/02/05 01:47:22;;;;;;;1999.90;999.90;;;;;;;10.26;100.00;101871.47;10175083;29;20054;-68
2024/02/05 01:52:25;;;;;;;1999.90;999.90;;;;;;;10.21;100.00;101874.25;10174721;29;20060;-68
2024/02/05 01:57:27;;;;;;;1999.90;999.90;;;;;;;10.35;100.00;101863.28;10174214;29;20086;-68
2024/02/05 02:02:30;;;;;;;1999.90;999.90;;;;;;;10.14;100.00;101851.03;10174193;29;20060;-68
2024/02/05 02:07:32;;;;;;;1999.90;999.90;;;;;;;10.06;100.00;101846.06;10174482;29;20482;-68
2024/02/05 02:12:35;;;;;;;1999.90;999.90;;;;;;;10.08;100.00;101853.88;10196753;29;20052;-68
2024/02/05 02:17:40;;;;;;;1999.90;999.90;;;;;;;9.96;100.00;101860.41;10181941;29;20080;-68
2024/02/05 02:22:45;;;;;;;1999.90;999.90;;;;;;;9.89;100.00;101861.56;10181089;29;20064;-68
2024/02/05 02:27:48;;;;;;;1999.90;999.90;;;;;;;9.85;100.00;101853.84;10196090;29;20072;-69
2024/02/05 02:33:07;;;;;;;1999.90;999.90;;;;;;;9.88;100.00;101865.94;10181342;29;20118;-69
2024/02/05 02:38:51;;;;;;;1999.90;999.90;;;;;;;9.90;100.00;101855.41;10195675;29;20052;-68
2024/02/05 02:44:00;;;;;;;1999.90;999.90;;;;;;;9.82;100.00;101871.41;10181006;29;20062;-69
2024/02/05 02:49:03;;;;;;;1999.90;999.90;;;;;;;9.72;100.00;101849.13;10180165;29;20087;-68
2024/02/05 02:54:05;;;;;;;1999.90;999.90;;;;;;;9.80;100.00;101858.38;10178849;29;20084;-68
2024/02/05 02:59:09;;;;;;;1999.90;999.90;;;;;;;9.72;100.00;101844.72;10180379;29;20058;-68
2024/02/05 03:04:12;;;;;;;1999.90;999.90;;;;;;;9.78;100.00;101848.88;10179543;29;20055;-69
2024/02/05 03:09:14;;;;;;;1999.90;999.90;;;;;;;9.82;100.00;101855.72;10180016;29;20452;-68
2024/02/05 03:14:17;;;;;;;1999.90;999.90;;;;;;;9.75;100.00;101839.41;10194292;29;20131;-69
2024/02/05 03:19:19;;;;;;;1999.90;999.90;;;;;;;9.74;100.00;101863.84;10179217;29;20087;-68
2024/02/05 03:24:21;;;;;;;1999.90;999.90;;;;;;;9.78;100.00;101862.78;10178844;29;20052;-69
2024/02/05 03:29:24;;;;;;;1999.90;999.90;;;;;;;9.83;100.00;101863.50;10178746;29;20388;-68
2024/02/05 03:34:27;;;;;;;1999.90;999.90;;;;;;;9.72;100.00;101872.66;10178997;29;20050;-69
2024/02/05 03:39:30;;;;;;;1999.90;999.90;;;;;;;9.76;100.00;101880.31;10178763;29;20048;-68
2024/02/05 03:44:32;;;;;;;1999.90;999.90;;;;;;;9.79;100.00;101881.97;10178101;29;20381;-69
2024/02/05 03:49:35;;;;;;;1999.90;999.90;;;;;;;9.79;100.00;101868.91;10178494;29;20052;-68
2024/02/05 03:54:37;;;;;;;1999.90;999.90;;;;;;;9.80;100.00;101865.34;10177491;29;20056;-69
2024/02/05 03:59:40;;;;;;;1999.90;999.90;;;;;;;9.81;100.00;101869.69;10178156;29;20059;-69
2024/02/05 04:04:42;;;;;;;1999.90;999.90;;;;;;;9.83;100.00;101865.25;10177961;29;20135;-69
2024/02/05 04:09:44;;;;;;;1999.90;999.90;;;;;;;9.83;100.00;101865.25;10177923;29;20052;-69
2024/02/05 04:14:47;;;;;;;1999.90;999.90;;;;;;;9.82;100.00;101860.94;10177458;29;20055;-69
2024/02/05 04:19:50;;;;;;;1999.90;999.90;;;;;;;9.85;100.00;101868.66;10177349;29;20052;-69
2024/02/05 04:24:52;;;;;;;1999.90;999.90;;;;;;;9.93;100.00;101868.38;10177216;29;20050;-68
2024/02/05 04:29:56;;;;;;;1999.90;999.90;;;;;;;9.78;100.00;101868.03;10176766;29;20052;-69
2024/02/05 04:34:58;;;;;;;1999.90;999.90;;;;;;;9.79;100.00;101882.81;10190808;29;20048;-69
2024/02/05 04:40:01;;;;;;;1999.90;999.90;;;;;;;9.84;100.00;101877.44;10176654;29;20056;-68
2024/02/05 04:45:04;;;;;;;1999.90;999.90;;;;;;;9.84;100.00;101875.66;10176474;29;20071;-69
2024/02/05 04:50:06;;;;;;;1999.90;999.90;;;;;;;9.81;100.00;101867.06;10175690;29;20571;-68
2024/02/05 04:55:09;;;;;;;1999.90;999.90;;;;;;;9.83;100.00;101857.41;10175479;29;20187;-69
2024/02/05 05:00:12;;;;;;;1999.90;999.90;;;;;;;9.78;100.00;101860.19;10176074;29;20056;-68
2024/02/05 05:05:15;;;;;;;1999.90;999.90;;;;;;;9.75;100.00;101856.84;10175306;29;20518;-69
2024/02/05 05:10:17;;;;;;;1999.90;999.90;;;;;;;9.83;100.00;101858.28;10175802;29;20079;-69
2024/02/05 05:15:19;;;;;;;1999.90;999.90;;;;;;;9.95;100.00;101856.97;10190182;29;20131;-69
2024/02/05 05:20:22;;;;;;;1999.90;999.90;;;;;;;9.81;100.00;101854.00;10174969;29;20482;-69
2024/02/05 05:25:25;;;;;;;1999.90;999.90;;;;;;;9.79;100.00;101855.81;10190099;29;20055;-69
2024/02/05 05:30:27;;;;;;;1999.90;999.90;;;;;;;9.90;100.00;101858.03;10175378;29;20071;-69
2024/02/05 05:35:29;;;;;;;1999.90;999.90;;;;;;;9.84;100.00;101849.50;10175251;29;20055;-69
2024/02/05 05:40:33;;;;;;;1999.90;999.90;;;;;;;9.71;100.00;101847.41;10174578;29;20052;-69
2024/02/05 05:45:35;;;;;;;1999.90;999.90;;;;;;;9.79;100.00;101848.81;10181413;29;20532;-69
2024/02/05 05:50:38;;;;;;;1999.90;999.90;;;;;;;9.71;100.00;101844.78;10182305;29;20411;-69
2024/02/05 05:55:41;;;;;;;1999.90;999.90;;;;;;;9.83;100.00;101839.09;10182026;29;20451;-69
2024/02/05 06:00:44;;;;;;;1999.90;999.90;;;;;;;9.69;100.00;101842.22;10181890;29;20491;-69
2024/02/05 06:05:47;;;;;;;1999.90;999.90;;;;;;;9.65;100.00;101838.03;10196105;29;20496;-69
2024/02/05 06:10:50;;;;;;;1999.90;999.90;;;;;;;9.66;100.00;101837.09;10181546;29;20514;-69
2024/02/05 06:15:52;;;;;;;1999.90;999.90;;;;;;;9.63;100.00;101832.88;10195894;29;20480;-69
2024/02/05 06:20:54;;;;;;;1999.90;999.90;;;;;;;9.69;100.00;101842.22;10181809;29;20056;-69
2024/02/05 06:25:57;;;;;;;1999.90;999.90;;;;;;;9.64;100.00;101845.00;10181607;29;20083;-69
2024/02/05 06:30:59;;;;;;;1999.90;999.90;;;;;;;9.70;100.00;101854.41;10181469;29;20059;-69
2024/02/05 06:36:02;;;;;;;1999.90;999.90;;;;;;;9.60;100.00;101840.81;10180592;29;20404;-69
2024/02/05 06:41:04;;;;;;;1999.90;999.90;;;;;;;9.59;100.00;101831.25;10180664;29;20142;-69
2024/02/05 06:46:07;;;;;;;1999.90;999.90;;;;;;;9.56;100.00;101825.28;10194867;29;20048;-69
2024/02/05 06:51:09;;;;;;;1999.90;999.90;;;;;;;9.66;100.00;101840.56;10180743;29;20229;-69
2024/02/05 06:56:16;;;;;;;1999.90;999.90;;;;;;;9.58;100.00;101854.84;10178937;29;20060;-69
2024/02/05 07:01:19;;;;;;;1999.90;999.90;;;;;;;9.57;100.00;101861.84;10194912;29;20134;-69
2024/02/05 07:06:21;;;;;;;1999.90;999.90;;;;;;;9.58;100.00;101860.06;10180206;29;20050;-69
2024/02/05 07:11:24;;;;;;;1999.90;999.90;;;;;;;9.49;100.00;101849.03;10179435;29;20456;-69
2024/02/05 07:16:26;;;;;;;1999.90;999.90;;;;;;;9.64;100.00;101860.69;10179740;29;20059;-69
2024/02/05 07:21:29;;;;;;;1999.90;999.90;;;;;;;9.58;100.00;101853.09;10179660;29;20056;-69
2024/02/05 07:26:34;;;;;;;1999.90;999.90;;;;;;;9.57;100.00;101869.69;10179517;29;20052;-69
2024/02/05 07:31:36;;;;;;;1999.90;999.90;;;;;;;9.78;100.00;101885.50;10193819;29;20056;-69
2024/02/05 07:36:39;;;;;;;1999.90;999.90;;;;;;;9.84;100.00;101874.81;10179008;29;20067;-69
2024/02/05 07:41:41;;;;;;;1999.90;999.90;;;;;;;9.89;100.00;101879.88;10178903;29;20056;-69
2024/02/05 07:46:44;;;;;;;1999.90;999.90;;;;;;;9.85;100.00;101868.66;10178117;29;20539;-69
2024/02/05 07:51:47;;;;;;;1999.90;999.90;;;;;;;9.82;100.00;101864.41;10178490;29;20156;-69
2024/02/05 07:56:51;;;;;;;1999.90;999.90;;;;;;;9.89;100.00;101865.03;10178646;29;20048;-69
2024/02/05 08:01:53;;;;;;;1999.90;999.90;;;;;;;9.84;100.00;101874.81;10192618;29;20059;-69
2024/02/05 08:06:59;;;;;;;1999.90;999.90;;;;;;;9.76;100.00;101877.69;10177950;29;20129;-69
2024/02/05 08:12:01;;;;;;;1999.90;999.90;;;;;;;9.71;100.00;101881.41;10177197;29;20435;-69
2024/02/05 08:17:04;;;;;;;1999.90;999.90;;;;;;;9.62;100.00;101874.75;10191458;29;20115;-69
2024/02/05 08:22:10;;;;;;;1999.90;999.90;;;;;;;9.77;100.00;101863.72;10176305;29;20059;-69
2024/02/05 08:27:13;;;;;;;1999.90;999.90;;;;;;;9.88;100.00;101862.47;10191684;29;20052;-69
2024/02/05 08:32:15;;;;;;;1999.90;999.90;;;;;;;9.84;100.00;101859.13;10175252;29;20056;-69
2024/02/05 08:37:18;;;;;;;1999.90;999.90;;;;;;;9.85;100.00;101856.44;10175604;29;20083;-69
2024/02/05 08:42:20;;;;;;;1999.90;999.90;;;;;;;9.90;100.00;101855.41;10175468;29;20056;-69
2024/02/05 08:47:34;;;;;;;1999.90;999.90;;;;;;;9.86;100.00;101849.44;10175458;29;20048;-69
2024/02/05 08:52:37;;;;;;;1999.90;999.90;;;;;;;9.85;100.00;101866.91;10190104;29;20444;-69
2024/02/05 08:57:41;;;;;;;1999.90;999.90;;;;;;;9.87;100.00;101864.25;10190750;29;20048;-69
2024/02/05 09:02:53;;;;;;;1999.90;999.90;;;;;;;10.33;100.00;101854.63;10175418;29;20076;-69
2024/02/05 09:07:55;;;;;;;1999.90;999.90;;;;;;;9.95;100.00;101849.13;10189943;29;20132;-69
2024/02/05 09:12:57;;;;;;;1999.90;999.90;;;;;;;9.92;100.00;101864.03;10175148;29;20583;-69
2024/02/05 09:18:00;;;;;;;1999.90;999.90;;;;;;;9.88;100.00;101863.31;10189580;29;20116;-69
2024/02/05 09:23:02;;;;;;;1999.90;999.90;;;;;;;9.88;100.00;101865.09;10190147;29;20084;-69
2024/02/05 09:28:05;;;;;;;1999.90;999.90;;;;;;;9.99;100.00;101882.09;10189287;29;20535;-69
2024/02/05 09:33:08;;;;;;;1999.90;999.90;;;;;;;9.77;100.00;101865.50;10174155;29;20048;-69
2024/02/05 09:38:11;;;;;;;1999.90;999.90;;;;;;;10.12;100.00;101872.00;10189749;29;20048;-69
2024/02/05 09:43:13;;;;;;;1999.90;999.90;;;;;;;10.04;99.43;101861.81;10189040;29;20052;-69
2024/02/05 09:48:17;;;;;;;1999.90;999.90;;;;;;;9.80;98.68;101868.84;10188993;29;20052;-71
2024/02/05 09:53:34;;;;;;;1999.90;999.90;;;;;;;9.97;98.17;101851.63;10187244;29;20121;-69
2024/02/05 09:58:37;;;;;;;1999.90;999.90;;;;;;;10.13;97.74;101865.00;10174183;29;20416;-69
2024/02/05 10:03:39;;;;;;;1999.90;999.90;;;;;;;10.40;96.12;101858.72;10173056;29;20075;-69
2024/02/05 10:08:42;;;;;;;1999.90;999.90;;;;;;;10.15;95.69;101858.78;10212980;23;20070;-66
2024/02/05 10:13:45;;;;;;;1999.90;999.90;;;;;;;10.51;94.82;101865.31;10196512;29;20571;-66
2024/02/05 10:18:47;;;;;;;1999.90;999.90;;;;;;;10.11;97.29;101864.22;10213750;29;20062;-66
2024/02/05 10:23:55;;;;;;;1999.90;999.90;;;;;;;10.18;97.00;101857.84;10213176;29;20443;-66
2024/02/05 10:29:08;;;;;;;1999.90;999.90;;;;;;;10.20;95.08;101845.53;10213543;29;20115;-66
2024/02/05 10:34:23;;;;;;;1999.90;999.90;;;;;;;10.18;96.97;101858.66;10219501;29;20136;-66
2024/02/05 10:39:26;;;;;;;1999.90;999.90;;;;;;;10.07;93.88;101846.91;10220190;29;20392;-66
2024/02/05 10:44:29;;;;;;;1999.90;999.90;;;;;;;10.41;93.02;101860.44;10220353;29;20054;-66
2024/02/05 10:49:43;;;;;;;1999.90;999.90;;;;;;;10.46;91.36;101860.25;10220236;29;20055;-66
2024/02/05 10:54:47;;;;;;;1999.90;999.90;;;;;;;10.14;93.43;101858.88;10218162;29;20562;-66
2024/02/05 10:59:49;;;;;;;1999.90;999.90;;;;;;;10.11;94.08;101849.38;10218028;29;20566;-66
2024/02/05 11:04:54;;;;;;;1999.90;999.90;;;;;;;10.22;93.72;101830.63;10218471;29;20055;-66
2024/02/05 11:09:57;;;;;;;1999.90;999.90;;;;;;;10.22;93.09;101831.50;10217687;29;20064;-65
2024/02/05 11:15:11;;;;;;;1999.90;999.90;;;;;;;10.55;94.40;101817.97;10218047;29;20043;-66
2024/02/05 11:20:13;;;;;;;1999.90;999.90;;;;;;;10.38;93.00;101825.66;10218479;29;20139;-67
2024/02/05 11:25:17;;;;;;;1999.90;999.90;;;;;;;10.58;92.06;101810.00;10217687;29;20055;-67
2024/02/05 11:30:20;;;;;;;1999.90;999.90;;;;;;;10.69;91.67;101809.56;10218694;29;20131;-67
2024/02/05 11:35:29;;;;;;;1999.90;999.90;;;;;;;10.81;92.44;101796.84;10218384;29;20055;-67
2024/02/05 11:40:33;;;;;;;1999.90;999.90;;;;;;;10.87;89.79;101786.97;10217390;29;20530;-67
2024/02/05 11:45:36;;;;;;;1999.90;999.90;;;;;;;10.46;90.33;101767.78;10217130;29;20051;-67
2024/02/05 11:50:40;;;;;;;1999.90;999.90;;;;;;;10.70;91.61;101755.41;10217859;29;20051;-67
2024/02/05 11:55:43;;;;;;;1999.90;999.90;;;;;;;10.72;90.51;101743.09;10216542;29;20051;-66
2024/02/05 12:00:45;;;;;;;1999.90;999.90;;;;;;;10.91;89.50;101740.50;10216390;29;20059;-66
2024/02/05 12:05:49;;;;;;;1999.90;999.90;;;;;;;10.95;89.73;101729.84;10217371;29;20048;-66
2024/02/05 12:10:51;;;;;;;1999.90;999.90;;;;;;;10.91;87.92;101722.19;10215419;29;20491;-67
2024/02/05 12:15:53;;;;;;;1999.90;999.90;;;;;;;11.40;88.86;101727.84;10199397;29;20510;-67
2024/02/05 12:20:59;;;;;;;1999.90;999.90;;;;;;;11.42;87.38;101719.91;10215642;29;20138;-66
2024/02/05 12:26:02;;;;;;;1999.90;999.90;;;;;;;11.44;88.36;101704.97;10216631;29;20070;-68
2024/02/05 12:31:05;;;;;;;1999.90;999.90;;;;;;;12.20;85.34;101724.06;10215427;29;20055;-68
2024/02/05 12:36:08;;;;;;;1999.90;999.90;;;;;;;11.58;85.47;101725.28;10198794;29;20074;-67
2024/02/05 12:41:10;;;;;;;1999.90;999.90;;;;;;;11.68;86.08;101729.16;10216246;29;20135;-67
2024/02/05 12:46:13;;;;;;;1999.90;999.90;;;;;;;11.74;85.82;101728.06;10214721;29;20130;-67
2024/02/05 12:51:16;;;;;;;1999.90;999.90;;;;;;;11.51;85.52;101730.81;10215122;29;20055;-67
2024/02/05 12:56:18;;;;;;;1999.90;999.90;;;;;;;11.42;86.19;101714.66;10215475;29;20050;-67
2024/02/05 13:01:22;;;;;;;1999.90;999.90;;;;;;;11.37;87.19;101722.75;10213626;29;20060;-67
2024/02/05 13:06:25;;;;;;;1999.90;999.90;;;;;;;11.34;85.83;101755.19;10213544;29;20484;-67
2024/02/05 13:11:31;;;;;;;1999.90;999.90;;;;;;;12.52;82.66;101718.97;10213229;29;20407;-67
2024/02/05 13:16:35;;;;;;;1999.90;999.90;;;;;;;12.27;82.33;101704.47;10215055;29;20052;-67
2024/02/05 13:21:37;;;;;;;1999.90;999.90;;;;;;;12.18;82.27;101707.53;10214903;29;20106;-67
2024/02/05 13:26:45;;;;;;;1999.90;999.90;;;;;;;11.89;81.90;101707.16;10214780;29;20048;-67
2024/02/05 13:31:47;;;;;;;1999.90;999.90;;;;;;;12.00;82.71;101682.19;10214096;29;20114;-67
2024/02/05 13:36:50;;;;;;;1999.90;999.90;;;;;;;12.15;80.28;101673.56;10214557;29;20043;-67
2024/02/05 13:41:52;;;;;;;1999.90;999.90;;;;;;;11.87;80.28;101677.53;10214499;29;20048;-68
2024/02/05 13:46:55;;;;;;;1999.90;999.90;;;;;;;11.58;81.85;101667.59;10212652;29;20463;-67
2024/02/05 13:51:57;;;;;;;1999.90;999.90;;;;;;;11.46;84.28;101651.50;10214380;29;20054;-67
2024/02/05 13:57:00;;;;;;;1999.90;999.90;;;;;;;11.06;83.94;101649.91;10213554;29;20051;-67
2024/02/05 14:02:02;;;;;;;1999.90;999.90;;;;;;;11.10;84.17;101648.84;10213516;29;20051;-67
2024/02/05 14:07:04;;;;;;;1999.90;999.90;;;;;;;11.00;85.55;101653.66;10221139;29;20111;-68
2024/02/05 14:12:07;;;;;;;1999.90;999.90;;;;;;;11.36;85.33;101638.91;10221054;29;20415;-67
2024/02/05 14:17:09;;;;;;;1999.90;999.90;;;;;;;11.33;84.88;101634.66;10220769;29;20399;-67
2024/02/05 14:22:12;;;;;;;1999.90;999.90;;;;;;;11.15;86.48;101626.75;10221478;29;20051;-68
2024/02/05 14:27:14;;;;;;;1999.90;999.90;;;;;;;11.08;84.91;101642.84;10219341;29;20558;-68
2024/02/05 14:32:17;;;;;;;1999.90;999.90;;;;;;;11.07;85.83;101612.28;10220243;29;20479;-67
2024/02/05 14:37:19;;;;;;;1999.90;999.90;;;;;;;11.13;84.53;101620.72;10220656;29;20074;-67
2024/02/05 14:42:22;;;;;;;1999.90;999.90;;;;;;;10.88;85.34;101634.09;10220857;29;20056;-67
2024/02/05 14:47:27;;;;;;;1999.90;999.90;;;;;;;10.78;86.09;101620.56;10219784;29;20401;-67
2024/02/05 14:52:31;;;;;;;1999.90;999.90;;;;;;;10.71;85.75;101624.38;10219519;29;20052;-67
2024/02/05 14:57:34;;;;;;;1999.90;999.90;;;;;;;10.84;88.27;101619.41;10218719;29;20155;-67
2024/02/05 15:02:37;;;;;;;1999.90;999.90;;;;;;;10.59;87.73;101622.28;10219304;29;20452;-67
2024/02/05 15:07:39;;;;;;;1999.90;999.90;;;;;;;10.85;86.05;101617.69;10218761;29;20403;-67
2024/02/05 15:12:42;;;;;;;1999.90;999.90;;;;;;;10.56;87.09;101628.53;10219449;29;20055;-67
2024/02/05 15:17:44;;;;;;;1999.90;999.90;;;;;;;10.48;87.44;101632.41;10218438;29;20047;-67
2024/02/05 15:22:47;;;;;;;1999.90;999.90;;;;;;;10.65;87.49;101614.19;10218982;29;20051;-68
2024/02/05 15:27:49;;;;;;;1999.90;999.90;;;;;;;10.56;87.76;101614.59;10217674;29;20048;-68
2024/02/05 15:32:52;;;;;;;1999.90;999.90;;;;;;;10.39;89.22;101626.66;10217480;29;20052;-68
2024/02/05 15:37:55;;;;;;;1999.90;999.90;;;;;;;10.38;89.05;101616.25;10217236;29;20127;-68
2024/02/05 15:42:57;;;;;;;1999.90;999.90;;;;;;;10.52;89.73;101616.50;10217052;29;20055;-68
2024/02/05 15:48:00;;;;;;;1999.90;999.90;;;;;;;10.11;91.26;101620.88;10218090;29;20098;-67
2024/02/05 15:53:02;;;;;;;1999.90;999.90;;;;;;;10.10;90.67;101617.38;10217925;29;20059;-68
2024/02/05 15:58:07;;;;;;;1999.90;999.90;;;;;;;10.26;91.65;101628.06;10200275;29;20438;-68
2024/02/05 16:03:09;;;;;;;1999.90;999.90;;;;;;;10.09;90.49;101634.00;10216364;29;20048;-68
2024/02/05 16:08:12;;;;;;;1999.90;999.90;;;;;;;10.11;91.79;101631.34;10216891;29;20066;-68
2024/02/05 16:13:14;;;;;;;1999.90;999.90;;;;;;;10.11;91.02;101633.94;10217097;29;20052;-68
2024/02/05 16:18:17;;;;;;;1999.90;999.90;;;;;;;9.92;90.72;101623.38;10216188;29;20055;-68
2024/02/05 16:23:19;;;;;;;1999.90;999.90;;;;;;;9.92;90.15;101624.25;10216117;29;20055;-68
2024/02/05 16:28:22;;;;;;;1999.90;999.90;;;;;;;9.96;89.38;101620.59;10214482;29;20054;-68
2024/02/05 16:33:24;;;;;;;1999.90;999.90;;;;;;;9.97;89.26;101632.75;10216337;29;20055;-68
2024/02/05 16:38:27;;;;;;;1999.90;999.90;;;;;;;9.83;91.71;101620.25;10215474;29;20048;-68
2024/02/05 16:43:29;;;;;;;1999.90;999.90;;;;;;;9.84;91.61;101623.72;10215964;29;20056;-68
2024/02/05 16:48:32;;;;;;;1999.90;999.90;;;;;;;9.74;92.55;101640.69;10215160;29;20408;-67
2024/02/05 16:53:36;;;;;;;1999.90;999.90;;;;;;;9.73;92.72;101636.38;10215375;29;20487;-67
2024/02/05 16:58:39;;;;;;;1999.90;999.90;;;;;;;9.59;92.41;101631.69;10215483;29;20128;-67
2024/02/05 17:03:41;;;;;;;1999.90;999.90;;;;;;;9.49;92.83;101636.44;10214756;29;20414;-67
2024/02/05 17:08:44;;;;;;;1999.90;999.90;;;;;;;9.56;92.93;101634.44;10214807;29;20083;-67
2024/02/05 17:13:46;;;;;;;1999.90;999.90;;;;;;;9.61;92.65;101643.78;10213321;29;20514;-68
2024/02/05 17:18:50;;;;;;;1999.90;999.90;;;;;;;9.50;94.02;101619.84;10214853;29;20159;-67
2024/02/05 17:23:53;;;;;;;1999.90;999.90;;;;;;;9.45;94.16;101640.94;10214861;29;20056;-67
2024/02/05 17:28:56;;;;;;;1999.90;999.90;;;;;;;9.40;93.10;101640.28;10214120;29;20488;-67
2024/02/05 17:33:58;;;;;;;1999.90;999.90;;;;;;;9.23;94.05;101633.09;10214024;29;20407;-67
2024/02/05 17:39:01;;;;;;;1999.90;999.90;;;;;;;9.38;94.32;101626.41;10215660;29;20054;-67
2024/02/05 17:44:04;;;;;;;1999.90;999.90;;;;;;;9.44;94.36;101626.16;10222126;29;20488;-67
2024/02/05 17:49:06;;;;;;;1999.90;999.90;;;;;;;9.23;93.03;101643.53;10221349;29;20058;-67
2024/02/05 17:54:09;;;;;;;1999.90;999.90;;;;;;;9.37;95.48;101623.88;10222547;29;20055;-68
2024/02/05 17:59:11;;;;;;;1999.90;999.90;;;;;;;9.36;94.20;101637.84;10221511;29;20406;-67
2024/02/05 18:04:13;;;;;;;1999.90;999.90;;;;;;;9.22;94.60;101630.53;10222102;29;20079;-67
2024/02/05 18:09:16;;;;;;;1999.90;999.90;;;;;;;9.21;94.37;101631.44;10221264;29;20082;-67
2024/02/05 18:14:18;;;;;;;1999.90;999.90;;;;;;;9.18;93.71;101628.94;10221790;29;20130;-67
2024/02/05 18:19:21;;;;;;;1999.90;999.90;;;;;;;9.30;95.46;101623.25;10221259;29;20052;-67
2024/02/05 18:24:23;;;;;;;1999.90;999.90;;;;;;;9.16;96.17;101618.53;10221449;29;20086;-67
2024/02/05 18:29:38;;;;;;;1999.90;999.90;;;;;;;9.10;94.25;101608.34;10220351;29;20567;-67
2024/02/05 18:34:41;;;;;;;1999.90;999.90;;;;;;;9.20;95.13;101601.84;10219716;29;20057;-67
2024/02/05 18:39:48;;;;;;;1999.90;999.90;;;;;;;9.02;95.35;101598.16;10220634;29;20082;-68
2024/02/05 18:44:51;;;;;;;1999.90;999.90;;;;;;;9.08;96.20;101594.50;10219915;29;20087;-67
2024/02/05 18:49:53;;;;;;;1999.90;999.90;;;;;;;9.10;97.55;101596.13;10218580;29;20510;-67
2024/02/05 18:54:56;;;;;;;1999.90;999.90;;;;;;;9.10;96.10;101601.34;10219473;29;20056;-67
2024/02/05 18:59:58;;;;;;;1999.90;999.90;;;;;;;8.96;98.40;101590.59;10219208;29;20074;-67
2024/02/05 19:05:00;;;;;;;1999.90;999.90;;;;;;;8.98;99.03;101586.16;10219728;29;20086;-67
2024/02/05 19:10:04;;;;;;;1999.90;999.90;;;;;;;8.92;98.63;101597.66;10218728;29;20499;-67
2024/02/05 19:15:06;;;;;;;1999.90;999.90;;;;;;;9.02;100.00;101584.28;10218765;29;20415;-67
2024/02/05 19:20:09;;;;;;;1999.90;999.90;;;;;;;8.92;100.00;101586.38;10219097;29;20052;-67
2024/02/05 19:25:11;;;;;;;1999.90;999.90;;;;;;;8.95;100.00;101565.38;10219028;29;20056;-67
2024/02/05 19:30:17;;;;;;;1999.90;999.90;;;;;;;8.77;100.00;101560.84;10218258;29;20551;-67
2024/02/05 19:35:19;;;;;;;1999.90;999.90;;;;;;;8.63;100.00;101550.94;10219255;29;20052;-67
2024/02/05 19:40:21;;;;;;;1999.90;999.90;;;;;;;8.52;100.00;101546.94;10218340;29;20051;-66
2024/02/05 19:45:24;;;;;;;1999.90;999.90;;;;;;;8.63;100.00;101559.59;10217591;29;20393;-67
2024/02/05 19:50:26;;;;;;;1999.90;999.90;;;;;;;8.63;100.00;101556.97;10218089;29;20062;-67
2024/02/05 19:55:30;;;;;;;1999.90;999.90;;;;;;;8.66;100.00;101556.88;10216582;29;20048;-67
2024/02/05 20:00:33;;;;;;;1999.90;999.90;;;;;;;8.51;100.00;101555.69;10217416;29;20135;-67
2024/02/05 20:05:41;;;;;;;1999.90;999.90;;;;;;;8.29;100.00;101552.13;10217454;29;20051;-67
2024/02/05 20:10:43;;;;;;;1999.90;999.90;;;;;;;8.49;100.00;101557.50;10216645;29;20052;-66
2024/02/05 20:15:46;;;;;;;1999.90;999.90;;;;;;;8.51;100.00;101542.63;10215804;29;20059;-66
2024/02/05 20:20:48;;;;;;;1999.90;999.90;;;;;;;8.25;100.00;101550.50;10215673;29;20385;-66
2024/02/05 20:25:50;;;;;;;1999.90;999.90;;;;;;;8.44;100.00;101541.16;10216061;29;20056;-66
2024/02/05 20:30:53;;;;;;;1999.90;999.90;;;;;;;8.48;100.00;101534.91;10216515;29;20066;-66
2024/02/05 20:35:56;;;;;;;1999.90;999.90;;;;;;;8.35;100.00;101537.09;10215088;29;20044;-66
2024/02/05 20:40:58;;;;;;;1999.90;999.90;;;;;;;8.63;100.00;101527.44;10215520;29;20487;-66
2024/02/05 20:46:00;;;;;;;1999.90;999.90;;;;;;;8.50;100.00;101533.09;10215319;29;20480;-66
2024/02/05 20:51:03;;;;;;;1999.90;999.90;;;;;;;8.66;100.00;101509.88;10215796;29;20098;-66
2024/02/05 20:56:05;;;;;;;1999.90;999.90;;;;;;;8.79;100.00;101514.63;10215512;29;20054;-66
2024/02/05 21:01:08;;;;;;;1999.90;999.90;;;;;;;8.63;100.00;101514.38;10214342;29;20083;-66
2024/02/05 21:06:10;;;;;;;1999.90;999.90;;;;;;;8.41;100.00;101511.69;10215376;29;20047;-65
2024/02/05 21:11:14;;;;;;;1999.90;999.90;;;;;;;8.43;100.00;101515.97;10214409;29;20062;-66
2024/02/05 21:16:19;;;;;;;1999.90;999.90;;;;;;;8.37;100.00;101510.91;10212676;29;20051;-66
2024/02/05 21:21:23;;;;;;;1999.90;999.90;;;;;;;8.65;100.00;101495.13;10215003;29;20103;-66
2024/02/05 21:26:25;;;;;;;1999.90;999.90;;;;;;;8.36;100.00;101489.22;10214854;29;20058;-66
2024/02/05 21:31:28;;;;;;;1999.90;999.90;;;;;;;8.52;100.00;101491.28;10213557;29;20074;-66
2024/02/05 21:36:30;;;;;;;1999.90;999.90;;;;;;;8.53;100.00;101480.78;10213987;29;20403;-65
2024/02/05 21:41:33;;;;;;;1999.90;999.90;;;;;;;8.53;100.00;101483.38;10214568;29;20062;-66
2024/02/05 21:46:35;;;;;;;1999.90;999.90;;;;;;;8.51;100.00;101472.16;10213849;29;20052;-66
2024/02/05 21:51:38;;;;;;;1999.90;999.90;;;;;;;8.67;100.00;101476.78;10214388;29;20051;-66
2024/02/05 21:56:41;;;;;;;1999.90;999.90;;;;;;;8.55;100.00;101465.06;10213065;29;20048;-66